Terminal Aerodrome Forecast
Issued by NWS Omaha/Valley, NE

Home | Current Version | Previous Version | Text Only | Print | Product List | Glossary On
Versions: 1 2 3 4 5 6 7 8 9 10 11 12 13 14 15 16 17 18 19 20 21 22 23 24 25 26 27 28 29 30 31 32 33 34 35 36 37 38 39 40
000
FTUS43 KOAX 140520
TAFLNK
TAF
KLNK 140520Z 1406/1506 VRB04KT P6SM SCT100
     FM140800 36006KT P6SM BKN080
      TEMPO 1408/1412 4SM -TSRA SCT025 OVC040CB
     FM141200 02010KT P6SM SCT030 BKN070
      TEMPO 1412/1415 5SM -SHRA
     FM141600 36014G23KT P6SM SCT040 SCT100
     FM150100 36011KT P6SM SCT250=

USA.gov is the U.S. government's official web portal to all federal, state and local government web resources and services.